Flight Track Log - Related Links

Times and Time Zones

All times are in EDT time to prevent confusion due to time zone crossing. See the N758T flight status page for this flight to view local times or setup timezone preferences in your user account.

Time Position Orientation Groundspeed Altitude Reporting Facility
EDT Latitude Longitude Course Direction KTS MPH feet Rate Location/Type
Wed 03:23:23 PM 40.7442 -80.3578 125° Southeast 161 185 2,400  Level Cleveland Center
Wed 03:24:25 PM 40.7236 -80.2931 113° Southeast 159 183 2,400  Level Cleveland Center
Wed 03:25:27 PM 40.7014 -80.2461 122° Southeast 156 180 2,400 48 Level Cleveland Center
Wed 03:26:29 PM 40.6758 -80.2003 126° Southeast 154 177 2,500  Climbing Cleveland Center
Wed 03:27:32 PM 40.6589 -80.1475 113° Southeast 155 178 2,400 48 Descending Cleveland Center
Wed 03:28:00 PM 40.5977 -80.0616 125° Southeast  Level FlightAware Approximate
Wed 03:28:34 PM 40.6372 -80.0969 119° Southeast 153 176 2,600  Level Cleveland Center
Wed 03:29:36 PM 40.6147 -80.0503 122° Southeast 155 178 2,500 -97 Descending Cleveland Center
Wed 03:30:38 PM 40.5939 -79.9881 114° Southeast 155 178 2,400  Descending Cleveland Center
Wed 03:31:40 PM 40.5736 -79.9383 118° Southeast 154 177 2,500 48 Climbing Cleveland Center
Wed 03:32:42 PM 40.5472 -79.8953 129° Southeast 152 175 2,500  Level Cleveland Center
Wed 03:33:44 PM 40.5228 -79.8494 125° Southeast 152 175 2,500  Level Cleveland Center
Wed 03:34:46 PM 40.4975 -79.8028 125° Southeast 154 177 2,500  Level Cleveland Center
Wed 03:35:48 PM 40.4719 -79.7553 125° Southeast 158 182 2,500  Level Cleveland Center
Wed 03:36:50 PM 40.4467 -79.7106 127° Southeast 156 180 2,500  Level Cleveland Center
Wed 03:37:52 PM 40.4167 -79.6575 127° Southeast 153 176 2,500 384 Level Cleveland Center
Wed 03:38:55 PM 40.3928 -79.6103 124° Southeast 155 178 3,300 480 Climbing Cleveland Center
Wed 03:39:57 PM 40.3661 -79.5653 128° Southeast 156 180 3,500 157 Climbing Cleveland Center
Wed 03:40:50 PM 40.3406 -79.5197 126° Southeast 158 182 3,600  Climbing Cleveland Center
Wed 03:40:59 PM 40.3397 -79.5194 166° South 158 182 3,500  Descending Cleveland Center
Wed 03:41:38 PM 40.3186 -79.4836 128° Southeast 161 185 3,600  Climbing Cleveland Center
Wed 03:42:01 PM 40.3114 -79.4725 130° Southeast 162 186 3,500  Descending Cleveland Center
Wed 03:42:39 PM 40.2911 -79.4383 128° Southeast 162 186 3,600 -97 Climbing Cleveland Center
Wed 03:43:03 PM 40.2844 -79.4253 124° Southeast 162 186 3,400  Descending Cleveland Center
Wed 03:43:39 PM 40.2597 -79.3872 130° Southeast 164 189 3,600 97 Climbing Cleveland Center
Wed 03:44:05 PM 40.2508 -79.3700 124° Southeast 162 186 3,500 -98 Descending Cleveland Center
Wed 03:44:40 PM 40.2322 -79.3394 129° Southeast 164 189 3,500  Level Cleveland Center
Wed 03:45:07 PM 40.2225 -79.3219 126° Southeast 164 189 3,500 98 Level Cleveland Center
Wed 03:45:41 PM 40.2047 -79.2944 130° Southeast 163 188 3,600  Climbing Cleveland Center
Wed 03:46:09 PM 40.1917 -79.2722 128° Southeast 164 189 3,500  Descending Cleveland Center
Wed 03:46:41 PM 40.1750 -79.2492 133° Southeast 162 186 3,600  Climbing Cleveland Center
Wed 03:47:11 PM 40.1625 -79.2272 127° Southeast 164 189 3,500  Descending Cleveland Center
Wed 03:47:36 PM 40.1472 -79.2042 131° Southeast 163 188 3,600  Climbing Cleveland Center
Wed 03:48:13 PM 40.1361 -79.1833 125° Southeast 163 188 3,500 -162 Descending Cleveland Center
Wed 03:50:00 PM 40.0873 -79.1042 129° Southeast  Level FlightAware Approximate
Wed 03:57:00 PM 40.0389 -79.0150 90° East  Level Estimated

Login

Don't have an account? Register now (free) for customized features, flight alerts, and more!